Time;durP1;ratioP1;P1;durP2;ratioP2;P2;SDS_P1;SDS_P2;PMS_P1;PMS_P2;Temp;Humidity;BMP_temperature;BMP_pressure;BME280_temperature;BME280_humidity;BME280_pressure;Samples;Min_cycle;Max_cycle;Signal;HPM_P1;HPM_P2
2021/09/14 00:00:11;;;;;;;8.73;7.93;;;;;;;18.20;95.63;156040.69;5015223;28;20542;-80
2021/09/14 00:02:50;;;;;;;8.50;7.60;;;;;;;18.16;96.62;156030.25;5004912;28;20947;-80
2021/09/14 00:05:25;;;;;;;8.90;8.10;;;;;;;18.16;96.84;156029.00;5016505;28;20448;-80
2021/09/14 00:08:03;;;;;;;9.40;8.50;;;;;;;18.13;96.22;156022.50;5016717;28;20413;-80
2021/09/14 00:10:38;;;;;;;8.87;8.07;;;;;;;18.12;97.60;156019.88;5018405;28;20498;-80
2021/09/14 00:13:14;;;;;;;9.67;8.87;;;;;;;18.09;98.11;156012.03;5019748;28;20443;-80
2021/09/14 00:15:50;;;;;;;9.70;8.83;;;;;;;18.06;98.27;156004.22;5034673;28;20439;-80
2021/09/14 00:18:25;;;;;;;10.80;9.80;;;;;;;18.05;97.18;156001.66;5033599;28;20463;-80
2021/09/14 00:21:01;;;;;;;9.37;8.50;;;;;;;18.04;97.18;155997.72;5014725;28;20460;-80
2021/09/14 00:23:38;;;;;;;10.77;9.70;;;;;;;18.03;98.15;155995.16;5016561;28;20436;-80
2021/09/14 00:26:13;;;;;;;9.77;8.87;;;;;;;18.04;99.05;155997.72;5031458;28;20855;-80
2021/09/14 00:28:49;;;;;;;10.13;8.43;;;;;;;17.99;98.80;155986.00;5016011;28;20452;-80
2021/09/14 00:31:26;;;;;;;9.40;8.50;;;;;;;18.00;98.73;155987.31;5014592;28;20436;-80
2021/09/14 00:34:02;;;;;;;9.60;8.60;;;;;;;17.95;98.31;155975.56;5032942;28;20462;-80
2021/09/14 00:36:37;;;;;;;9.63;8.73;;;;;;;17.95;98.22;155974.31;5027240;28;20432;-80
2021/09/14 00:39:14;;;;;;;9.83;8.93;;;;;;;17.96;98.76;155978.19;5007132;28;20819;-80
2021/09/14 00:41:50;;;;;;;9.80;8.90;;;;;;;17.94;99.38;155973.00;5017558;28;20441;-80
2021/09/14 00:44:25;;;;;;;8.93;8.10;;;;;;;17.96;98.10;155976.88;5026759;28;20461;-80
2021/09/14 00:47:01;;;;;;;9.60;8.70;;;;;;;17.93;98.16;155970.38;5024355;28;20479;-80
2021/09/14 00:49:36;;;;;;;9.10;8.30;;;;;;;17.90;98.75;155962.56;5028354;28;20481;-80
2021/09/14 00:52:12;;;;;;;10.10;9.20;;;;;;;17.89;98.52;155958.66;5041940;28;20531;-80
2021/09/14 00:54:49;;;;;;;9.60;8.70;;;;;;;17.87;97.94;155953.47;5019224;28;20448;-80
2021/09/14 00:57:24;;;;;;;10.23;9.23;;;;;;;17.86;98.39;155950.84;5017601;28;20459;-80
2021/09/14 00:59:59;;;;;;;9.97;8.80;;;;;;;17.87;98.03;155954.72;4999889;28;20452;-80
2021/09/14 01:02:35;;;;;;;10.43;9.10;;;;;;;17.85;98.83;155949.53;5016540;28;20469;-80
2021/09/14 01:05:12;;;;;;;10.60;9.60;;;;;;;17.81;98.58;155937.84;5014206;28;20551;-80
2021/09/14 01:07:49;;;;;;;11.33;10.03;;;;;;;17.77;98.75;155927.38;4998884;28;20908;-80
2021/09/14 01:10:26;;;;;;;11.50;9.53;;;;;;;17.74;98.43;155920.88;4998708;28;20556;-80
2021/09/14 01:13:02;;;;;;;11.27;10.20;;;;;;;17.72;99.02;155915.69;4998291;28;20445;-80
2021/09/14 01:15:37;;;;;;;10.47;9.43;;;;;;;17.69;99.57;155907.88;5007666;28;20846;-80
2021/09/14 01:18:13;;;;;;;11.00;9.90;;;;;;;17.67;98.55;155902.69;5023135;28;20456;-80
2021/09/14 01:20:48;;;;;;;10.17;8.90;;;;;;;17.66;99.07;155900.06;5030636;28;20425;-80
2021/09/14 01:23:25;;;;;;;10.10;9.10;;;;;;;17.66;98.69;155898.78;5017750;28;20440;-80
2021/09/14 01:26:02;;;;;;;10.00;9.00;;;;;;;17.62;99.30;155889.66;4998596;28;20437;-80
2021/09/14 01:28:37;;;;;;;10.37;9.37;;;;;;;17.61;99.46;155887.03;4998529;28;20444;-80
2021/09/14 01:31:14;;;;;;;13.63;10.33;;;;;;;17.58;98.95;155880.53;4998007;28;20444;-80
2021/09/14 01:33:50;;;;;;;10.30;9.30;;;;;;;17.58;98.87;155879.22;4999452;28;20472;-80
2021/09/14 01:36:28;;;;;;;10.20;9.30;;;;;;;17.60;99.52;155884.47;5013766;28;20409;-80
2021/09/14 01:39:05;;;;;;;9.73;8.77;;;;;;;17.58;99.61;155880.53;5013851;28;20472;-80
2021/09/14 01:41:40;;;;;;;9.63;8.73;;;;;;;17.56;99.39;155874.03;5009321;28;20944;-80
2021/09/14 01:44:16;;;;;;;9.23;8.40;;;;;;;17.54;99.93;155870.16;5017925;28;20491;-80
2021/09/14 01:46:52;;;;;;;8.50;7.70;;;;;;;17.54;99.25;155868.84;5015427;28;20446;-80
2021/09/14 01:49:28;;;;;;;9.77;8.87;;;;;;;17.57;100.00;155876.66;5001988;28;20468;-80
2021/09/14 01:52:05;;;;;;;9.20;8.30;;;;;;;17.53;99.34;155866.22;5024667;28;20460;-80
2021/09/14 01:54:43;;;;;;;8.60;7.80;;;;;;;17.52;100.00;155863.59;5017904;28;20448;-80
2021/09/14 01:57:21;;;;;;;8.73;7.93;;;;;;;17.50;99.63;155858.38;5032657;28;20424;-80
2021/09/14 01:59:58;;;;;;;8.80;7.90;;;;;;;17.50;98.62;155858.38;5024467;28;20451;-80
2021/09/14 02:02:48;;;;;;;9.60;7.67;;;;;;;17.49;98.05;155855.78;5025206;28;20547;-81
2021/09/14 02:05:38;;;;;;;9.30;8.40;;;;;;;17.46;98.09;155847.94;4997883;28;20449;-80
2021/09/14 02:08:28;;;;;;;9.90;9.00;;;;;;;17.41;98.64;155836.25;5014055;28;20939;-80
2021/09/14 02:43:44;;;;;;;9.17;8.27;;;;;;;17.09;100.00;155752.94;4997606;28;20445;-79
2021/09/14 03:00:47;;;;;;;10.53;9.00;;;;;;;16.96;100.00;155720.44;5023951;28;21021;-80
2021/09/14 03:03:24;;;;;;;8.83;7.93;;;;;;;16.94;100.00;155715.19;5014826;28;20443;-80
2021/09/14 03:06:00;;;;;;;8.70;7.90;;;;;;;16.96;100.00;155720.44;5016921;28;20546;-80
2021/09/14 03:08:36;;;;;;;9.03;8.23;;;;;;;16.97;100.00;155723.00;5001987;28;20440;-80
2021/09/14 03:11:13;;;;;;;10.03;8.10;;;;;;;16.96;100.00;155720.44;4996465;28;20448;-80
2021/09/14 03:13:56;;;;;;;8.90;8.00;;;;;;;16.94;100.00;155715.19;5027098;28;20444;-81
2021/09/14 03:16:32;;;;;;;9.30;8.40;;;;;;;16.96;100.00;155719.13;5023367;28;20444;-80
2021/09/14 03:19:10;;;;;;;11.70;7.80;;;;;;;16.97;100.00;155721.75;5013453;28;20484;-80
2021/09/14 03:21:46;;;;;;;9.50;8.60;;;;;;;16.98;100.00;155725.63;5007947;28;20448;-80
2021/09/14 03:24:21;;;;;;;9.07;8.27;;;;;;;16.96;100.00;155720.44;4996846;28;20448;-80
2021/09/14 03:26:58;;;;;;;9.80;8.10;;;;;;;16.98;100.00;155725.63;5019800;28;20443;-80
2021/09/14 03:29:34;;;;;;;9.20;8.23;;;;;;;16.99;100.00;155728.25;5020502;28;20916;-80
2021/09/14 03:32:10;;;;;;;10.03;8.03;;;;;;;17.01;100.00;155733.44;5022027;28;20538;-80
2021/09/14 03:34:48;;;;;;;8.77;7.73;;;;;;;17.05;100.00;155743.81;5000933;28;20846;-80
2021/09/14 03:37:25;;;;;;;7.90;7.10;;;;;;;17.10;100.00;155754.25;5013776;28;20528;-80
2021/09/14 03:40:01;;;;;;;8.20;7.40;;;;;;;17.11;100.00;155758.16;4996361;28;20483;-80
2021/09/14 03:42:37;;;;;;;9.23;8.30;;;;;;;17.09;100.00;155751.63;5017009;28;20444;-80
2021/09/14 03:45:12;;;;;;;10.47;8.50;;;;;;;17.04;100.00;155741.25;5015178;28;20825;-80
2021/09/14 03:47:49;;;;;;;8.40;7.50;;;;;;;17.05;100.00;155743.81;5011380;28;20830;-80
2021/09/14 03:50:26;;;;;;;9.67;8.67;;;;;;;17.05;100.00;155742.53;5023839;28;20463;-80
2021/09/14 03:53:02;;;;;;;8.33;7.53;;;;;;;17.04;100.00;155739.94;5011428;28;20922;-80
2021/09/14 03:55:38;;;;;;;8.50;7.70;;;;;;;17.01;100.00;155733.44;5011938;28;21263;-80
2021/09/14 03:58:14;;;;;;;8.47;7.57;;;;;;;16.99;100.00;155726.94;5008642;28;20827;-80
2021/09/14 04:00:53;;;;;;;8.57;7.77;;;;;;;16.97;100.00;155723.00;5018679;28;20926;-80
2021/09/14 04:03:39;;;;;;;9.20;8.20;;;;;;;16.95;100.00;155717.81;5013459;28;20435;-80
2021/09/14 04:06:35;;;;;;;9.47;8.50;;;;;;;16.94;100.00;155713.94;5026154;28;20476;-80
2021/09/14 04:09:11;;;;;;;8.70;7.87;;;;;;;16.92;100.00;155708.69;5007178;28;20539;-80
2021/09/14 04:11:55;;;;;;;9.30;7.87;;;;;;;16.89;100.00;155702.19;4996973;28;21006;-80
2021/09/14 04:14:33;;;;;;;8.73;7.90;;;;;;;16.87;100.00;155697.00;4996536;28;20454;-80
2021/09/14 04:17:10;;;;;;;9.00;8.20;;;;;;;16.87;100.00;155695.69;5006486;28;20448;-80
2021/09/14 04:19:46;;;;;;;9.13;8.30;;;;;;;16.81;100.00;155681.38;4999229;28;20484;-80
2021/09/14 04:22:23;;;;;;;8.80;7.90;;;;;;;16.85;100.00;155690.50;5015201;28;20436;-80
2021/09/14 04:24:59;;;;;;;8.87;7.97;;;;;;;16.83;100.00;155686.59;5031668;28;20455;-80
2021/09/14 04:27:35;;;;;;;9.60;8.73;;;;;;;16.83;100.00;155686.59;5015477;28;20472;-80
2021/09/14 04:30:11;;;;;;;9.40;8.40;;;;;;;16.80;100.00;155678.78;5025005;28;20471;-80
2021/09/14 04:32:47;;;;;;;10.83;8.87;;;;;;;16.76;100.00;155668.38;5000082;28;20428;-80
2021/09/14 04:35:23;;;;;;;9.73;8.77;;;;;;;16.74;100.00;155661.88;4999966;28;20846;-80
2021/09/14 04:38:02;;;;;;;9.00;7.70;;;;;;;16.78;100.00;155673.59;5015028;28;20453;-80
2021/09/14 04:40:38;;;;;;;9.67;8.33;;;;;;;16.76;100.00;155668.38;5018418;28;20535;-80
2021/09/14 04:43:14;;;;;;;9.20;8.40;;;;;;;16.73;100.00;155660.53;5015311;28;20519;-80
2021/09/14 04:45:50;;;;;;;10.27;9.10;;;;;;;16.75;100.00;155665.78;5014667;28;20802;-80
2021/09/14 04:48:25;;;;;;;9.47;8.63;;;;;;;16.72;100.00;155657.97;4999069;28;20538;-80
2021/09/14 04:51:01;;;;;;;10.33;9.33;;;;;;;16.71;100.00;155655.34;5034262;28;20527;-80
2021/09/14 04:53:38;;;;;;;9.93;8.97;;;;;;;16.67;100.00;155643.66;5035720;28;20452;-80
2021/09/14 04:56:14;;;;;;;10.10;9.17;;;;;;;16.62;100.00;155631.97;5022936;28;20445;-80
2021/09/14 04:58:50;;;;;;;9.70;8.80;;;;;;;16.65;100.00;155639.78;5005284;28;20575;-83
2021/09/14 05:01:26;;;;;;;10.47;9.47;;;;;;;16.67;100.00;155644.97;5016177;28;20507;-80
2021/09/14 05:04:02;;;;;;;10.97;9.93;;;;;;;16.66;100.00;155642.34;4997948;28;20551;-80
2021/09/14 05:06:39;;;;;;;9.73;8.80;;;;;;;16.64;100.00;155635.84;4998376;28;20445;-80
2021/09/14 05:09:17;;;;;;;10.00;8.97;;;;;;;16.64;100.00;155637.16;5018345;28;20440;-80
2021/09/14 05:11:56;;;;;;;9.40;8.50;;;;;;;16.61;100.00;155629.34;5013791;28;20433;-79
2021/09/14 05:14:34;;;;;;;11.30;9.33;;;;;;;16.63;100.00;155633.22;4998193;28;20455;-80
2021/09/14 05:17:42;;;;;;;9.10;8.00;;;;;;;16.58;100.00;155621.53;5003249;28;20541;-80
2021/09/14 05:20:41;;;;;;;9.57;8.40;;;;;;;16.50;100.00;155600.66;5032364;28;20962;-80
2021/09/14 05:23:21;;;;;;;10.40;9.40;;;;;;;16.50;100.00;155600.66;5034758;28;20416;-80
2021/09/14 05:25:59;;;;;;;9.87;8.87;;;;;;;16.48;100.00;155595.47;5029280;28;20445;-80
2021/09/14 05:28:36;;;;;;;10.70;9.60;;;;;;;16.45;100.00;155588.97;5005948;28;20448;-80
2021/09/14 05:31:12;;;;;;;10.80;9.70;;;;;;;16.46;100.00;155590.28;5017281;28;20473;-80
2021/09/14 05:33:48;;;;;;;11.00;9.90;;;;;;;16.43;100.00;155582.47;5015568;28;20452;-80
2021/09/14 05:36:24;;;;;;;11.50;10.30;;;;;;;16.49;100.00;155596.78;5012154;28;20451;-80
2021/09/14 05:39:00;;;;;;;11.90;10.80;;;;;;;16.52;100.00;155604.59;5017538;28;20475;-80
2021/09/14 05:41:36;;;;;;;11.60;10.43;;;;;;;16.51;100.00;155603.28;5006367;28;20537;-80
2021/09/14 05:44:17;;;;;;;10.67;9.57;;;;;;;16.54;100.00;155609.84;4997910;28;20803;-80
2021/09/14 05:46:53;;;;;;;13.23;11.23;;;;;;;16.56;100.00;155616.34;5014383;28;20425;-80
2021/09/14 05:49:29;;;;;;;10.10;9.10;;;;;;;16.60;100.00;155625.47;5013214;28;20551;-80
2021/09/14 05:52:05;;;;;;;12.13;10.97;;;;;;;16.63;100.00;155633.22;4997841;28;20460;-80
2021/09/14 05:54:42;;;;;;;14.63;10.93;;;;;;;16.69;100.00;155650.16;5012988;28;20451;-80
2021/09/14 05:57:19;;;;;;;11.63;10.43;;;;;;;16.68;100.00;155646.28;5014300;28;20420;-80
2021/09/14 05:59:56;;;;;;;12.70;10.47;;;;;;;16.77;100.00;155669.66;4999196;28;20835;-80
2021/09/14 06:02:32;;;;;;;12.07;10.73;;;;;;;16.86;100.00;155694.41;5002902;28;20683;-80
2021/09/14 06:05:09;;;;;;;12.20;10.90;;;;;;;17.00;100.00;155730.81;4997633;28;20490;-80
2021/09/14 06:07:46;;;;;;;11.60;10.47;;;;;;;17.22;100.00;155785.47;5012270;28;20850;-81
2021/09/14 06:10:22;;;;;;;11.77;10.57;;;;;;;17.41;100.00;155836.25;4996707;28;20444;-81
2021/09/14 06:13:21;;;;;;;11.53;9.90;;;;;;;17.69;100.00;155907.88;4996824;28;20506;-81
2021/09/14 06:15:57;;;;;;;11.67;10.50;;;;;;;17.90;100.00;155962.56;4996520;28;20444;-80
2021/09/14 06:18:35;;;;;;;10.67;9.67;;;;;;;18.10;100.00;156014.66;5012577;28;20425;-81
2021/09/14 06:21:13;;;;;;;11.60;9.70;;;;;;;18.32;100.00;156070.63;4996689;28;20859;-80
2021/09/14 06:23:49;;;;;;;11.03;9.97;;;;;;;18.52;99.32;156121.50;5013869;28;20951;-81
2021/09/14 06:26:26;;;;;;;10.13;9.13;;;;;;;18.73;98.23;156176.22;4999927;28;20548;-81
2021/09/14 06:29:03;;;;;;;10.03;8.70;;;;;;;18.90;95.10;156220.53;5008440;28;20453;-81
2021/09/14 06:31:39;;;;;;;9.70;8.70;;;;;;;19.10;94.69;156271.31;5012164;28;20421;-81
2021/09/14 06:34:15;;;;;;;10.43;9.10;;;;;;;19.26;92.91;156313.03;5011035;28;20451;-81
2021/09/14 06:36:50;;;;;;;10.37;9.27;;;;;;;19.48;93.52;156369.13;5030142;28;20440;-81
2021/09/14 06:39:26;;;;;;;9.47;8.53;;;;;;;19.65;91.48;156413.44;5017268;28;20959;-82
2021/09/14 06:42:02;;;;;;;13.03;9.00;;;;;;;19.85;90.82;156465.63;4998707;28;20797;-81
2021/09/14 06:44:39;;;;;;;10.07;9.03;;;;;;;20.08;89.05;156524.25;4996879;28;20958;-82
2021/09/14 06:47:20;;;;;;;9.23;8.33;;;;;;;20.36;87.63;156598.66;5017772;28;20456;-81
2021/09/14 06:49:55;;;;;;;9.83;8.93;;;;;;;20.54;86.57;156645.59;5035094;28;20431;-81
2021/09/14 06:52:31;;;;;;;10.03;8.93;;;;;;;20.70;84.41;156684.78;5025878;28;20447;-82
2021/09/14 06:55:07;;;;;;;8.80;8.00;;;;;;;20.77;84.39;156703.03;5017564;28;20448;-81
2021/09/14 06:57:44;;;;;;;8.80;8.00;;;;;;;20.98;82.44;156757.81;5015640;28;20451;-82
2021/09/14 07:00:22;;;;;;;9.90;8.90;;;;;;;21.15;82.34;156802.25;5025305;28;20547;-82
2021/09/14 07:02:58;;;;;;;9.10;8.20;;;;;;;21.23;81.42;156824.41;5018227;28;20476;-82
2021/09/14 07:05:33;;;;;;;9.00;8.10;;;;;;;21.35;81.48;156854.44;5009707;28;20547;-82
2021/09/14 07:08:09;;;;;;;8.77;7.63;;;;;;;21.62;80.21;156924.97;5031307;28;20440;-81
2021/09/14 07:10:45;;;;;;;9.20;8.40;;;;;;;21.90;78.78;156996.78;5022030;28;20468;-82
2021/09/14 07:13:20;;;;;;;9.13;8.23;;;;;;;22.08;76.84;157042.53;4995546;28;20536;-82
2021/09/14 07:15:57;;;;;;;8.93;7.70;;;;;;;22.27;76.67;157093.44;5025155;28;20436;-82
2021/09/14 07:18:33;;;;;;;8.30;7.30;;;;;;;22.33;75.03;157107.78;5014827;28;20444;-82
2021/09/14 07:21:08;;;;;;;9.33;8.03;;;;;;;22.41;75.94;157130.00;5015889;28;20912;-82
2021/09/14 07:23:44;;;;;;;8.20;7.43;;;;;;;22.60;75.38;157178.34;5016370;28;20927;-82
2021/09/14 07:26:20;;;;;;;8.50;7.70;;;;;;;22.68;74.30;157197.97;5013962;28;20456;-82
2021/09/14 07:28:56;;;;;;;12.63;8.27;;;;;;;22.91;73.93;157258.06;5029868;28;20641;-82
2021/09/14 07:31:33;;;;;;;8.23;7.07;;;;;;;23.00;73.55;157282.94;5011194;28;20631;-82
2021/09/14 07:34:09;;;;;;;8.40;7.60;;;;;;;22.93;73.04;157264.59;5030292;28;20830;-82
2021/09/14 07:36:44;;;;;;;7.17;6.43;;;;;;;22.94;72.37;157265.91;5022226;28;20437;-85
2021/09/14 07:39:19;;;;;;;7.70;7.10;;;;;;;22.98;71.94;157276.41;5029984;28;20471;-85
2021/09/14 07:41:55;;;;;;;10.63;7.40;;;;;;;23.18;71.73;157327.34;5030255;28;20436;-86
2021/09/14 07:44:31;;;;;;;7.53;6.67;;;;;;;23.26;70.47;157349.56;5029069;28;20451;-85
2021/09/14 07:47:08;;;;;;;8.50;7.60;;;;;;;23.31;71.16;157361.31;5009503;28;20959;-85
2021/09/14 07:49:45;;;;;;;7.47;6.87;;;;;;;23.44;70.42;157395.34;5013832;28;20476;-83
2021/09/14 07:52:21;;;;;;;7.70;7.10;;;;;;;23.58;69.94;157431.97;5017400;28;20923;-83
2021/09/14 07:54:57;;;;;;;7.63;7.03;;;;;;;23.83;69.29;157496.03;5006562;28;20450;-86
2021/09/14 07:57:33;;;;;;;7.67;6.87;;;;;;;23.92;68.86;157519.53;5023898;28;20447;-82
2021/09/14 08:00:10;;;;;;;7.40;6.67;;;;;;;24.04;67.88;157550.94;5031323;28;20471;-82
2021/09/14 08:02:57;;;;;;;8.70;6.60;;;;;;;24.14;68.22;157578.47;5027365;28;20776;-82
2021/09/14 08:05:38;;;;;;;6.80;6.20;;;;;;;24.37;66.30;157635.97;5035276;28;20806;-82
2021/09/14 08:08:14;;;;;;;7.50;6.80;;;;;;;24.44;66.34;157654.25;5031524;28;20958;-82
2021/09/14 08:10:50;;;;;;;7.23;6.53;;;;;;;24.56;66.96;157685.69;5030773;28;20943;-82
2021/09/14 08:13:25;;;;;;;7.97;6.70;;;;;;;24.59;66.03;157694.84;5014808;28;20826;-82
2021/09/14 08:16:01;;;;;;;7.10;6.40;;;;;;;24.76;66.17;157737.97;5013892;28;20878;-82
2021/09/14 08:18:39;;;;;;;7.47;6.77;;;;;;;24.89;64.31;157772.03;5013709;28;20436;-82
2021/09/14 08:21:15;;;;;;;7.43;6.83;;;;;;;24.92;64.58;157779.91;5014018;28;20461;-82
2021/09/14 08:23:52;;;;;;;8.03;6.20;;;;;;;24.86;63.40;157762.94;5014000;28;20460;-83
2021/09/14 08:26:28;;;;;;;7.30;6.20;;;;;;;24.92;63.63;157779.91;5015020;28;20448;-82
2021/09/14 08:29:04;;;;;;;7.00;5.87;;;;;;;24.99;64.43;157798.25;5033927;28;20439;-82
2021/09/14 08:31:40;;;;;;;6.40;5.90;;;;;;;25.04;65.47;157811.34;5034322;28;20424;-82
2021/09/14 08:34:17;;;;;;;7.33;6.60;;;;;;;25.12;63.11;157832.28;5022299;28;20848;-82
2021/09/14 08:36:53;;;;;;;6.97;6.27;;;;;;;25.20;62.88;157853.22;5053838;28;20447;-82
2021/09/14 08:39:29;;;;;;;7.07;6.37;;;;;;;25.19;64.08;157849.25;5033506;28;20888;-83
2021/09/14 08:42:06;;;;;;;7.50;5.80;;;;;;;25.18;63.95;157847.94;5014965;28;20412;-82
2021/09/14 08:44:43;;;;;;;7.63;6.43;;;;;;;25.28;63.27;157874.09;5014993;28;20552;-82
2021/09/14 08:47:19;;;;;;;8.93;6.10;;;;;;;25.38;63.95;157900.31;5013382;28;20501;-82
2021/09/14 08:49:56;;;;;;;8.63;6.90;;;;;;;25.60;62.53;157955.34;5013295;28;20464;-82
2021/09/14 08:52:34;;;;;;;7.03;6.33;;;;;;;25.67;62.79;157973.66;5013058;28;20440;-82
2021/09/14 08:55:11;;;;;;;6.30;5.70;;;;;;;25.39;62.75;157902.91;5024225;28;20440;-82
2021/09/14 08:57:51;;;;;;;6.70;6.00;;;;;;;25.40;65.02;157905.53;5026031;28;20991;-82
2021/09/14 09:00:33;;;;;;;6.13;5.53;;;;;;;25.47;63.50;157921.31;5020667;28;20472;-82
2021/09/14 09:03:09;;;;;;;6.10;5.60;;;;;;;25.55;62.57;157942.25;4999365;28;20459;-82
2021/09/14 09:05:47;;;;;;;7.23;6.03;;;;;;;25.63;63.69;157963.19;5030781;28;20439;-82
2021/09/14 09:08:26;;;;;;;6.50;5.90;;;;;;;25.75;62.45;157995.91;5023186;28;20456;-81
2021/09/14 09:11:04;;;;;;;6.50;5.83;;;;;;;25.65;62.32;157969.75;5016159;28;20476;-82
2021/09/14 09:13:50;;;;;;;6.37;5.77;;;;;;;25.64;62.08;157965.78;5013051;28;20453;-82
2021/09/14 09:16:27;;;;;;;6.83;6.23;;;;;;;25.68;60.77;157976.28;5027737;28;20484;-81
2021/09/14 09:19:05;;;;;;;6.07;5.53;;;;;;;25.65;62.01;157968.44;5014497;28;20453;-82
2021/09/14 09:21:42;;;;;;;7.07;6.50;;;;;;;25.54;62.24;157939.63;5030050;28;20459;-81
2021/09/14 09:24:18;;;;;;;6.07;5.57;;;;;;;25.73;62.43;157989.38;5029946;28;20456;-81
2021/09/14 09:26:53;;;;;;;8.00;6.37;;;;;;;25.57;62.07;157948.78;5021230;28;20443;-82
2021/09/14 09:29:29;;;;;;;6.33;5.73;;;;;;;25.62;63.36;157960.56;5012557;28;20464;-81
2021/09/14 09:32:05;;;;;;;6.57;5.90;;;;;;;25.48;64.87;157925.22;5033690;28;20456;-81
2021/09/14 09:34:41;;;;;;;6.90;6.30;;;;;;;25.49;63.09;157926.53;5013907;28;20460;-81
2021/09/14 09:37:23;;;;;;;7.07;6.00;;;;;;;25.70;63.12;157981.50;5015008;28;20453;-81
2021/09/14 09:39:58;;;;;;;7.20;6.60;;;;;;;25.68;63.68;157977.56;5013422;28;20505;-81
2021/09/14 09:42:34;;;;;;;7.60;6.67;;;;;;;25.65;63.00;157969.75;5024979;28;20448;-81
2021/09/14 09:45:17;;;;;;;6.70;6.13;;;;;;;25.61;61.68;157957.94;5032051;28;20958;-82
2021/09/14 09:47:52;;;;;;;6.63;6.00;;;;;;;25.62;63.33;157961.88;5027488;28;20844;-81
2021/09/14 09:50:28;;;;;;;7.10;6.40;;;;;;;25.44;62.14;157916.00;5013240;28;20449;-81
2021/09/14 09:53:05;;;;;;;7.13;6.43;;;;;;;25.39;63.12;157902.91;5026466;28;20443;-81
2021/09/14 09:55:41;;;;;;;5.87;5.20;;;;;;;25.42;62.41;157909.44;5025340;28;20464;-81
2021/09/14 09:58:17;;;;;;;6.87;6.27;;;;;;;25.47;63.00;157922.56;5024816;28;20507;-81
2021/09/14 10:00:56;;;;;;;6.63;6.03;;;;;;;25.50;68.63;157930.44;5012068;28;20472;-81
2021/09/14 10:03:33;;;;;;;6.57;5.97;;;;;;;25.66;61.82;157971.00;5027838;28;20484;-81
2021/09/14 10:06:09;;;;;;;7.83;7.03;;;;;;;25.73;61.42;157989.38;5029513;28;21100;-82
2021/09/14 10:08:53;;;;;;;6.37;5.67;;;;;;;25.72;62.57;157986.72;5030102;28;20873;-75
2021/09/14 10:11:30;;;;;;;6.63;6.03;;;;;;;25.57;62.58;157948.78;5011196;28;20445;-74
2021/09/14 10:14:10;;;;;;;8.17;6.30;;;;;;;25.48;63.37;157923.91;5011055;28;20513;-74
2021/09/14 10:16:46;;;;;;;6.50;6.00;;;;;;;25.56;63.59;157944.84;5012186;28;20531;-75
2021/09/14 10:19:28;;;;;;;6.30;5.40;;;;;;;25.71;63.37;157984.09;5015218;28;20448;-75
2021/09/14 10:22:06;;;;;;;6.80;6.20;;;;;;;25.55;66.97;157942.25;5026122;28;20468;-75
2021/09/14 10:24:50;;;;;;;6.83;6.33;;;;;;;25.73;62.18;157989.38;5015762;28;20437;-74
2021/09/14 10:27:37;;;;;;;6.47;5.90;;;;;;;25.67;62.38;157973.66;5023772;28;20441;-81
2021/09/14 10:30:15;;;;;;;6.53;5.93;;;;;;;25.68;64.71;157977.56;5013916;28;20457;-81
2021/09/14 10:32:50;;;;;;;7.33;6.67;;;;;;;25.61;63.44;157959.25;5013061;28;20413;-81
2021/09/14 10:35:28;;;;;;;5.93;5.47;;;;;;;25.61;62.72;157959.25;5012630;28;20454;-81
2021/09/14 10:38:08;;;;;;;6.83;6.23;;;;;;;25.66;63.62;157971.00;5012754;28;20440;-81
2021/09/14 10:40:46;;;;;;;7.23;6.63;;;;;;;25.63;64.03;157964.47;5012801;28;20835;-81
2021/09/14 10:43:25;;;;;;;7.60;6.47;;;;;;;25.64;63.28;157967.09;5011261;28;20445;-81
2021/09/14 10:46:01;;;;;;;7.33;6.63;;;;;;;25.63;63.99;157964.47;5012783;28;20426;-81
2021/09/14 10:48:47;;;;;;;6.83;6.27;;;;;;;25.77;62.72;158001.13;5021718;28;20802;-81
2021/09/14 10:51:23;;;;;;;7.10;6.50;;;;;;;25.87;62.71;158026.00;5030645;28;20519;-81
2021/09/14 10:53:59;;;;;;;6.53;5.87;;;;;;;25.95;63.31;158046.94;5028916;28;20521;-81
2021/09/14 10:56:48;;;;;;;6.50;5.90;;;;;;;26.04;61.83;158070.53;5024687;28;20440;-81
2021/09/14 10:59:24;;;;;;;6.90;6.30;;;;;;;25.96;65.38;158050.91;5026301;28;20440;-81
2021/09/14 11:01:59;;;;;;;7.30;6.70;;;;;;;25.87;65.31;158026.00;5011252;28;20472;-81
2021/09/14 11:04:35;;;;;;;6.70;6.10;;;;;;;25.87;64.52;158026.00;5011238;28;20939;-81
2021/09/14 11:07:11;;;;;;;6.90;6.30;;;;;;;25.96;64.65;158049.59;5017273;28;20440;-81
2021/09/14 11:09:52;;;;;;;7.80;7.03;;;;;;;26.01;68.64;158062.66;5023980;28;21348;-81
2021/09/14 11:12:31;;;;;;;6.60;6.00;;;;;;;25.98;63.33;158054.81;5014593;28;20434;-81
2021/09/14 11:15:07;;;;;;;7.47;6.57;;;;;;;26.06;63.98;158074.44;5012739;28;20457;-81
2021/09/14 11:17:48;;;;;;;6.80;6.20;;;;;;;26.09;62.47;158083.63;5010858;28;20502;-81
2021/09/14 11:20:25;;;;;;;7.50;6.13;;;;;;;26.15;62.83;158099.41;5032195;28;20468;-81
2021/09/14 11:23:02;;;;;;;6.53;6.00;;;;;;;26.28;63.57;158132.13;5031342;28;20447;-81
2021/09/14 11:25:39;;;;;;;11.40;6.77;;;;;;;26.17;63.31;158103.31;5030159;28;20447;-81
2021/09/14 11:28:17;;;;;;;6.70;6.10;;;;;;;26.14;62.91;158096.75;5012213;28;20498;-81
2021/09/14 11:30:55;;;;;;;6.57;5.97;;;;;;;26.21;62.66;158113.81;5017681;28;20909;-81
2021/09/14 11:33:31;;;;;;;6.63;6.03;;;;;;;26.21;63.16;158115.06;5011492;28;20473;-81
2021/09/14 11:36:08;;;;;;;6.87;6.27;;;;;;;26.15;62.11;158098.06;5010854;28;20936;-79
2021/09/14 11:38:43;;;;;;;7.13;6.40;;;;;;;26.09;62.38;158082.28;5026656;28;20456;-81
2021/09/14 11:41:19;;;;;;;6.87;6.27;;;;;;;26.11;63.91;158088.84;5012346;28;20452;-81
2021/09/14 11:43:55;;;;;;;7.33;6.67;;;;;;;26.07;65.54;158077.06;5011735;28;20527;-82
2021/09/14 11:46:31;;;;;;;6.80;6.20;;;;;;;26.21;62.06;158113.81;5028576;28;20483;-81
2021/09/14 11:49:08;;;;;;;6.47;5.80;;;;;;;26.25;62.11;158124.25;5026911;28;20483;-81
2021/09/14 11:51:43;;;;;;;7.70;7.10;;;;;;;26.18;61.51;158107.25;5010940;28;20449;-82
2021/09/14 11:54:21;;;;;;;6.53;6.00;;;;;;;26.16;63.51;158101.97;4997249;28;20535;-81
2021/09/14 11:56:57;;;;;;;6.93;6.33;;;;;;;26.22;62.81;158116.38;5009920;28;20449;-82
2021/09/14 11:59:38;;;;;;;7.30;6.70;;;;;;;26.36;62.26;158154.41;5012056;28;20472;-81
2021/09/14 12:02:17;;;;;;;7.33;6.73;;;;;;;26.38;66.36;158159.63;5010692;28;20460;-81
2021/09/14 12:04:59;;;;;;;7.13;6.53;;;;;;;26.34;63.25;158149.16;5027036;28;20467;-81
2021/09/14 12:07:34;;;;;;;7.10;6.40;;;;;;;26.33;63.67;158145.22;5020458;28;20543;-82
2021/09/14 12:10:11;;;;;;;6.60;6.10;;;;;;;26.43;61.62;158172.72;5012534;28;20440;-81
2021/09/14 12:13:04;;;;;;;7.17;6.07;;;;;;;26.46;62.13;158180.56;5010551;28;20450;-81
2021/09/14 12:15:41;;;;;;;7.30;6.60;;;;;;;26.47;61.88;158183.22;5012028;28;20453;-81
2021/09/14 12:18:17;;;;;;;6.90;6.40;;;;;;;26.44;61.65;158175.34;5011116;28;20476;-81
2021/09/14 12:20:53;;;;;;;6.60;6.00;;;;;;;26.55;61.94;158204.19;5002801;28;20468;-81
2021/09/14 12:23:28;;;;;;;6.50;6.00;;;;;;;26.50;61.36;158191.03;5011557;28;20864;-81
2021/09/14 12:26:04;;;;;;;6.73;6.10;;;;;;;26.48;65.24;158184.47;5010562;28;20448;-81
2021/09/14 12:28:39;;;;;;;6.00;5.47;;;;;;;26.45;61.07;158177.94;5029054;28;20456;-81
2021/09/14 12:31:16;;;;;;;6.60;6.00;;;;;;;26.47;61.30;158183.22;5029072;28;20952;-81
2021/09/14 12:33:53;;;;;;;6.23;5.73;;;;;;;26.51;64.06;158193.66;5028585;28;20451;-81
2021/09/14 12:36:28;;;;;;;6.20;5.70;;;;;;;26.55;60.88;158204.19;5002171;28;20452;-75
2021/09/14 12:39:04;;;;;;;6.37;5.77;;;;;;;26.59;60.74;158213.31;5034704;28;20810;-75
2021/09/14 12:41:40;;;;;;;6.80;6.20;;;;;;;26.62;63.31;158221.16;5012692;28;20468;-74
2021/09/14 12:44:15;;;;;;;6.47;5.87;;;;;;;26.53;60.42;158197.56;5013949;28;20943;-75
2021/09/14 12:46:55;;;;;;;8.77;7.97;;;;;;;26.29;63.25;158136.03;5015218;28;21143;-75
2021/09/14 12:49:32;;;;;;;8.87;7.97;;;;;;;25.91;63.12;158037.81;5032912;28;20479;-75
2021/09/14 12:52:08;;;;;;;8.00;7.30;;;;;;;25.83;63.48;158015.53;5016632;28;20436;-74